Time;durP1;ratioP1;P1;durP2;ratioP2;P2;SDS_P1;SDS_P2;PMS_P1;PMS_P2;Temp;Humidity;BMP_temperature;BMP_pressure;BME280_temperature;BME280_humidity;BME280_pressure;Samples;Min_cycle;Max_cycle;Signal;HPM_P1;HPM_P2
2021/10/20 00:00:39;;;;;;;21.60;19.23;;;16.50;99.90;;;;;;4995961;28;20536;-69
2021/10/20 00:03:06;;;;;;;19.90;17.90;;;16.50;99.90;;;;;;5014894;28;20469;-68
2021/10/20 00:05:33;;;;;;;15.03;13.53;;;16.50;99.90;;;;;;5002387;28;20469;-68
2021/10/20 00:08:03;;;;;;;11.97;10.87;;;16.50;99.90;;;;;;5009009;28;21003;-68
2021/10/20 00:10:30;;;;;;;8.07;7.20;;;16.50;99.90;;;;;;4995406;28;20462;-69
2021/10/20 00:12:57;;;;;;;7.73;7.00;;;16.50;99.90;;;;;;5003595;28;20468;-67
2021/10/20 00:15:24;;;;;;;8.40;7.57;;;16.60;99.90;;;;;;5000725;28;20898;-69
2021/10/20 00:17:53;;;;;;;8.00;7.23;;;16.50;99.90;;;;;;4996002;28;20465;-68
2021/10/20 00:20:22;;;;;;;6.63;5.93;;;16.60;99.90;;;;;;5000502;28;20465;-68
2021/10/20 00:22:50;;;;;;;6.70;5.27;;;16.50;99.90;;;;;;5012544;28;20978;-67
2021/10/20 00:25:18;;;;;;;6.70;6.10;;;16.50;99.90;;;;;;5000400;28;20480;-68
2021/10/20 00:27:45;;;;;;;10.03;6.40;;;16.50;99.90;;;;;;4996457;28;20474;-67
2021/10/20 00:30:15;;;;;;;5.67;5.17;;;16.50;99.90;;;;;;5007958;28;20477;-66
2021/10/20 00:32:42;;;;;;;6.90;6.30;;;16.40;99.90;;;;;;5006544;28;20469;-67
2021/10/20 00:35:10;;;;;;;6.80;6.17;;;16.40;99.90;;;;;;5001459;28;20473;-66
2021/10/20 00:37:37;;;;;;;7.53;6.93;;;16.40;99.90;;;;;;5005441;28;20466;-66
2021/10/20 00:40:06;;;;;;;5.50;5.00;;;16.40;99.90;;;;;;4995357;28;20478;-66
2021/10/20 00:42:33;;;;;;;6.50;5.43;;;16.40;99.90;;;;;;5009212;28;20846;-66
2021/10/20 00:45:02;;;;;;;6.80;6.27;;;16.40;99.90;;;;;;4997809;28;20478;-66
2021/10/20 00:47:30;;;;;;;5.97;5.37;;;16.40;99.90;;;;;;4995144;28;20536;-66
2021/10/20 00:49:57;;;;;;;6.10;5.60;;;16.40;99.90;;;;;;5007632;28;20470;-66
2021/10/20 00:52:26;;;;;;;9.90;9.00;;;16.30;99.90;;;;;;4994846;28;20474;-66
2021/10/20 00:54:56;;;;;;;9.67;8.67;;;16.40;99.90;;;;;;5000352;28;20477;-66
2021/10/20 00:57:24;;;;;;;6.80;6.13;;;16.40;99.90;;;;;;5002058;28;20478;-66
2021/10/20 00:59:53;;;;;;;7.40;6.73;;;16.40;99.90;;;;;;5008576;28;20858;-66
2021/10/20 01:02:23;;;;;;;7.20;6.50;;;16.30;99.90;;;;;;5007564;28;20502;-66
2021/10/20 01:04:50;;;;;;;6.80;6.20;;;16.30;99.90;;;;;;5007612;28;20474;-66
2021/10/20 01:07:18;;;;;;;8.03;7.30;;;16.30;99.90;;;;;;5007620;28;20531;-66
2021/10/20 01:09:47;;;;;;;7.83;7.03;;;16.30;99.90;;;;;;4995006;28;20469;-66
2021/10/20 01:12:16;;;;;;;8.20;7.40;;;16.30;99.90;;;;;;4996588;28;20832;-66
2021/10/20 01:14:44;;;;;;;9.27;8.33;;;16.30;99.90;;;;;;4999802;28;20468;-66
2021/10/20 01:17:11;;;;;;;10.67;9.70;;;16.30;99.90;;;;;;5001328;28;20519;-66
2021/10/20 01:19:38;;;;;;;8.43;7.43;;;16.30;99.90;;;;;;5001276;28;21531;-66
2021/10/20 01:22:07;;;;;;;10.23;7.90;;;16.20;99.90;;;;;;5006179;28;20984;-66
2021/10/20 01:24:35;;;;;;;9.57;8.03;;;16.10;99.90;;;;;;5013272;28;20461;-66
2021/10/20 01:27:02;;;;;;;9.27;8.47;;;16.10;99.90;;;;;;5008942;28;20472;-66
2021/10/20 01:29:29;;;;;;;11.07;9.97;;;16.10;99.90;;;;;;4999544;28;20540;-66
2021/10/20 01:31:58;;;;;;;9.73;8.83;;;16.10;99.90;;;;;;4999156;28;20527;-66
2021/10/20 01:34:25;;;;;;;10.77;9.70;;;16.10;99.90;;;;;;4998681;28;20466;-66
2021/10/20 01:36:53;;;;;;;9.10;8.23;;;16.10;99.90;;;;;;4994417;28;21015;-66
2021/10/20 01:39:22;;;;;;;9.20;8.23;;;16.20;99.90;;;;;;4995750;28;20840;-66
2021/10/20 01:41:50;;;;;;;10.70;9.37;;;16.10;99.90;;;;;;4998425;28;20480;-66
2021/10/20 01:44:17;;;;;;;10.50;9.60;;;16.10;99.90;;;;;;5004968;28;20540;-66
2021/10/20 01:46:44;;;;;;;12.33;10.40;;;16.10;99.90;;;;;;5004579;28;20458;-66
2021/10/20 01:49:11;;;;;;;12.60;11.40;;;16.10;99.90;;;;;;4999431;28;20969;-66
2021/10/20 01:51:38;;;;;;;13.50;12.20;;;16.10;99.90;;;;;;4994823;28;20474;-66
2021/10/20 01:54:06;;;;;;;10.93;9.97;;;16.00;99.90;;;;;;5009992;28;20501;-66
2021/10/20 01:56:35;;;;;;;11.30;10.10;;;16.00;99.90;;;;;;4993533;28;20470;-66
2021/10/20 01:59:02;;;;;;;12.47;11.27;;;16.00;99.90;;;;;;4998051;28;20501;-66
2021/10/20 02:01:28;;;;;;;12.53;11.43;;;16.10;99.90;;;;;;5001752;28;20500;-66
2021/10/20 02:03:55;;;;;;;12.03;10.87;;;16.10;99.90;;;;;;4998216;28;20461;-66
2021/10/20 02:06:22;;;;;;;17.10;15.30;;;16.10;99.90;;;;;;5001568;28;20590;-66
2021/10/20 02:08:50;;;;;;;12.00;10.93;;;16.10;99.90;;;;;;4997753;28;20982;-65
2021/10/20 02:11:19;;;;;;;12.53;11.23;;;16.10;99.90;;;;;;5011033;28;20519;-66
2021/10/20 02:13:47;;;;;;;13.17;11.80;;;16.00;99.90;;;;;;4995504;28;20820;-67
2021/10/20 02:16:14;;;;;;;12.73;11.40;;;16.10;99.90;;;;;;4993960;28;20466;-66
2021/10/20 02:18:41;;;;;;;13.87;12.43;;;16.10;99.90;;;;;;5006190;28;20872;-65
2021/10/20 02:21:09;;;;;;;13.07;11.53;;;16.10;99.90;;;;;;5005500;28;20978;-66
2021/10/20 02:23:35;;;;;;;15.47;14.07;;;16.10;99.90;;;;;;5005754;28;20481;-65
2021/10/20 02:26:02;;;;;;;15.27;13.77;;;16.00;99.90;;;;;;5005553;28;20480;-66
2021/10/20 02:28:29;;;;;;;11.60;10.40;;;16.00;99.90;;;;;;5017189;28;20507;-65
2021/10/20 02:30:58;;;;;;;15.43;13.80;;;16.00;99.90;;;;;;5019738;28;20843;-65
2021/10/20 02:33:24;;;;;;;14.60;13.10;;;16.00;99.90;;;;;;5025653;28;20556;-66
2021/10/20 02:35:52;;;;;;;13.23;12.03;;;16.00;99.90;;;;;;5030549;28;20456;-66
2021/10/20 02:38:19;;;;;;;14.70;12.90;;;16.00;99.90;;;;;;5019133;28;20476;-66
2021/10/20 02:40:46;;;;;;;13.37;12.17;;;16.00;99.90;;;;;;5021225;28;20524;-66
2021/10/20 02:43:13;;;;;;;11.93;10.83;;;16.10;99.90;;;;;;5028238;28;20510;-66
2021/10/20 02:45:40;;;;;;;12.57;11.37;;;16.00;99.90;;;;;;5031965;28;20471;-66
2021/10/20 02:48:08;;;;;;;12.83;11.63;;;16.00;99.90;;;;;;5026260;28;20530;-66
2021/10/20 02:50:35;;;;;;;11.80;10.53;;;16.00;99.90;;;;;;5032231;28;20476;-66
2021/10/20 02:53:02;;;;;;;12.73;11.23;;;16.00;99.90;;;;;;5019186;28;20488;-66
2021/10/20 02:55:29;;;;;;;38.87;28.00;;;16.00;99.90;;;;;;5024251;28;20485;-66
2021/10/20 02:57:56;;;;;;;12.23;11.00;;;16.00;99.90;;;;;;5027363;28;20537;-66
2021/10/20 03:00:23;;;;;;;12.50;11.20;;;16.00;99.90;;;;;;5020575;28;20484;-65
2021/10/20 03:02:50;;;;;;;13.97;12.57;;;16.00;99.90;;;;;;5027347;28;20459;-65
2021/10/20 03:05:19;;;;;;;12.20;11.00;;;16.00;99.90;;;;;;5023072;28;20473;-65
2021/10/20 03:07:50;;;;;;;11.70;10.60;;;16.00;99.90;;;;;;5024844;28;21225;-65
2021/10/20 03:10:18;;;;;;;11.43;10.33;;;16.00;99.90;;;;;;5023851;28;21020;-65
2021/10/20 03:12:45;;;;;;;11.10;10.10;;;16.00;99.90;;;;;;5028156;28;21013;-65
2021/10/20 03:15:13;;;;;;;12.27;11.07;;;16.00;99.90;;;;;;5025706;28;20529;-66
2021/10/20 03:17:40;;;;;;;12.07;10.87;;;15.90;99.90;;;;;;5022139;28;20541;-66
2021/10/20 03:20:09;;;;;;;11.40;10.30;;;15.90;99.90;;;;;;5025908;28;20469;-66
2021/10/20 03:22:39;;;;;;;11.03;10.03;;;15.90;99.90;;;;;;5028806;28;20552;-66
2021/10/20 03:25:08;;;;;;;11.77;9.93;;;15.90;99.90;;;;;;5016407;28;20531;-66
2021/10/20 03:27:41;;;;;;;12.10;10.70;;;15.90;99.90;;;;;;5025862;28;20467;-66
2021/10/20 03:30:09;;;;;;;11.23;10.10;;;15.90;99.90;;;;;;5036404;28;21054;-66
2021/10/20 03:32:36;;;;;;;12.33;11.23;;;15.90;99.90;;;;;;5017503;28;20465;-66
2021/10/20 03:35:04;;;;;;;11.67;10.67;;;15.90;99.90;;;;;;5020162;28;20472;-66
2021/10/20 03:37:31;;;;;;;10.60;9.50;;;15.90;99.90;;;;;;5035683;28;20563;-66
2021/10/20 03:39:59;;;;;;;11.90;10.53;;;15.90;99.90;;;;;;5036043;28;20468;-66
2021/10/20 03:42:26;;;;;;;11.67;10.47;;;15.90;99.90;;;;;;5029928;28;20526;-64
2021/10/20 03:44:53;;;;;;;10.93;9.80;;;15.90;99.90;;;;;;5031998;28;20456;-65
2021/10/20 03:47:20;;;;;;;12.37;11.27;;;15.90;99.90;;;;;;5036068;28;20567;-65
2021/10/20 03:49:48;;;;;;;12.13;9.60;;;15.90;99.90;;;;;;5035550;28;20479;-65
2021/10/20 03:52:15;;;;;;;11.20;10.00;;;15.90;99.90;;;;;;5036077;28;20476;-65
2021/10/20 03:54:42;;;;;;;10.60;9.60;;;15.90;99.90;;;;;;5035449;28;20468;-65
2021/10/20 03:57:10;;;;;;;10.70;9.60;;;15.90;99.90;;;;;;5035883;28;20472;-65
2021/10/20 03:59:38;;;;;;;10.53;9.43;;;15.90;99.90;;;;;;5035226;28;20475;-65
2021/10/20 04:02:05;;;;;;;9.73;8.87;;;15.80;99.90;;;;;;5035570;28;20476;-65
2021/10/20 04:04:32;;;;;;;10.07;9.10;;;15.80;99.90;;;;;;5035379;28;20468;-65
2021/10/20 04:06:59;;;;;;;10.73;9.67;;;15.80;99.90;;;;;;5025919;28;20464;-64
2021/10/20 04:09:26;;;;;;;9.53;8.63;;;15.90;99.90;;;;;;5015362;28;20473;-65
2021/10/20 04:11:53;;;;;;;10.80;9.90;;;15.80;99.90;;;;;;5031935;28;20464;-65
2021/10/20 04:14:22;;;;;;;9.70;8.77;;;15.80;99.90;;;;;;5033922;28;20475;-65
2021/10/20 04:16:51;;;;;;;10.80;9.70;;;15.90;99.90;;;;;;5015370;28;20531;-65
2021/10/20 04:19:18;;;;;;;11.13;10.10;;;15.80;99.90;;;;;;5018505;28;20480;-65
2021/10/20 04:21:45;;;;;;;11.83;10.70;;;15.80;99.90;;;;;;5034817;28;20562;-65
2021/10/20 04:24:12;;;;;;;12.80;11.13;;;15.80;99.90;;;;;;5031302;28;20867;-65
2021/10/20 04:26:39;;;;;;;11.27;9.97;;;15.70;99.90;;;;;;5014432;28;20469;-65
2021/10/20 04:29:06;;;;;;;9.53;8.63;;;15.80;99.90;;;;;;5015459;28;20469;-65
2021/10/20 04:31:34;;;;;;;8.50;7.80;;;15.80;99.90;;;;;;5023646;28;20472;-66
2021/10/20 04:34:01;;;;;;;9.77;8.97;;;15.80;99.90;;;;;;5035361;28;20460;-64
2021/10/20 04:36:28;;;;;;;9.70;8.80;;;15.80;99.90;;;;;;5019576;28;20498;-65
2021/10/20 04:38:55;;;;;;;9.50;8.60;;;15.80;99.90;;;;;;5015138;28;20481;-65
2021/10/20 04:41:23;;;;;;;9.27;8.47;;;15.80;99.90;;;;;;5015277;28;20464;-65
2021/10/20 04:43:50;;;;;;;10.70;8.93;;;15.80;99.90;;;;;;5024138;28;20457;-65
2021/10/20 04:46:17;;;;;;;9.20;8.30;;;15.70;99.90;;;;;;5015320;28;20469;-65
2021/10/20 04:48:45;;;;;;;9.57;8.10;;;15.80;99.90;;;;;;5014612;28;20523;-65
2021/10/20 04:51:12;;;;;;;9.80;8.83;;;15.70;99.90;;;;;;5015151;28;20465;-65
2021/10/20 04:53:39;;;;;;;8.67;7.83;;;15.70;99.90;;;;;;5014727;28;20484;-65
2021/10/20 04:56:06;;;;;;;9.97;8.90;;;15.80;99.90;;;;;;5015099;28;20461;-65
2021/10/20 04:58:33;;;;;;;8.03;7.43;;;15.80;99.90;;;;;;5014433;28;20817;-65
2021/10/20 05:01:00;;;;;;;9.60;8.80;;;15.80;99.90;;;;;;5014907;28;20503;-66
2021/10/20 05:03:27;;;;;;;9.20;8.40;;;15.70;99.90;;;;;;5014773;28;20523;-65
2021/10/20 05:05:55;;;;;;;10.57;9.47;;;15.80;99.90;;;;;;5014370;28;20943;-65
2021/10/20 05:08:22;;;;;;;8.10;7.40;;;15.70;99.90;;;;;;5014787;28;20477;-65
2021/10/20 05:10:49;;;;;;;8.90;8.10;;;15.70;99.90;;;;;;5014224;28;20485;-65
2021/10/20 05:13:16;;;;;;;9.17;8.10;;;15.70;99.90;;;;;;5014672;28;20461;-66
2021/10/20 05:15:44;;;;;;;7.90;7.13;;;15.70;99.90;;;;;;5026965;28;21036;-65
2021/10/20 05:18:11;;;;;;;7.77;6.90;;;15.70;99.90;;;;;;5034450;28;20468;-66
2021/10/20 05:20:38;;;;;;;8.30;7.43;;;15.70;99.90;;;;;;5033774;28;20473;-65
2021/10/20 05:23:10;;;;;;;8.30;7.43;;;15.80;99.90;;;;;;5034463;28;20993;-65
2021/10/20 05:25:37;;;;;;;8.40;7.70;;;15.70;99.90;;;;;;5033700;28;20810;-65
2021/10/20 05:28:04;;;;;;;8.47;6.80;;;15.70;99.90;;;;;;5034146;28;20472;-65
2021/10/20 05:30:31;;;;;;;8.10;7.30;;;15.70;99.90;;;;;;5034179;28;20475;-65
2021/10/20 05:32:58;;;;;;;8.60;7.70;;;15.70;99.90;;;;;;5033694;28;20522;-65
2021/10/20 05:35:25;;;;;;;8.50;7.80;;;15.70;99.90;;;;;;5033938;28;20526;-65
2021/10/20 05:37:53;;;;;;;6.87;6.27;;;15.70;99.90;;;;;;5033582;28;20479;-65
2021/10/20 05:40:23;;;;;;;6.83;6.20;;;15.70;99.90;;;;;;5033856;28;20547;-66
2021/10/20 05:42:51;;;;;;;7.00;6.37;;;15.70;99.90;;;;;;5024435;28;20531;-66
2021/10/20 05:45:18;;;;;;;7.57;6.87;;;15.70;99.90;;;;;;5033381;28;20499;-66
2021/10/20 05:47:45;;;;;;;7.57;6.93;;;15.70;99.90;;;;;;5033487;28;20990;-66
2021/10/20 05:50:12;;;;;;;7.60;6.90;;;15.70;99.90;;;;;;5033857;28;20530;-66
2021/10/20 05:52:39;;;;;;;8.13;7.40;;;15.70;99.90;;;;;;5033254;28;20543;-66
2021/10/20 05:55:07;;;;;;;8.97;8.07;;;15.70;99.90;;;;;;5033663;28;20514;-66
2021/10/20 05:57:37;;;;;;;7.30;6.70;;;15.70;99.90;;;;;;5033768;28;20970;-66
2021/10/20 06:00:06;;;;;;;7.37;6.67;;;15.70;99.90;;;;;;5033066;28;20556;-66
2021/10/20 06:02:33;;;;;;;12.73;11.50;;;15.70;99.90;;;;;;5033285;28;20568;-66
2021/10/20 06:05:00;;;;;;;15.20;11.90;;;15.70;99.90;;;;;;5033203;28;20467;-66
2021/10/20 06:07:27;;;;;;;10.90;9.90;;;15.70;99.90;;;;;;5033346;28;20472;-66
2021/10/20 06:09:54;;;;;;;8.43;7.53;;;15.70;99.90;;;;;;5032742;28;20476;-66
2021/10/20 06:12:22;;;;;;;7.60;6.80;;;15.70;99.90;;;;;;5033374;28;20820;-66
2021/10/20 06:14:50;;;;;;;7.43;6.57;;;15.70;99.90;;;;;;5027434;28;20638;-66
2021/10/20 06:17:18;;;;;;;7.30;6.40;;;15.70;99.90;;;;;;5013576;28;20473;-66
2021/10/20 06:19:46;;;;;;;10.17;7.60;;;15.60;99.90;;;;;;5013355;28;20556;-66
2021/10/20 06:22:13;;;;;;;10.83;7.27;;;15.70;99.90;;;;;;5013422;28;20551;-66
2021/10/20 06:24:40;;;;;;;7.33;6.63;;;15.70;99.90;;;;;;5013269;28;20480;-66
2021/10/20 06:27:07;;;;;;;7.60;6.17;;;15.70;99.90;;;;;;4993645;28;20472;-66
2021/10/20 06:29:34;;;;;;;6.57;6.00;;;15.70;99.90;;;;;;4993717;28;20812;-66
2021/10/20 06:32:03;;;;;;;6.87;6.27;;;15.70;99.90;;;;;;4993155;28;20470;-67
2021/10/20 06:34:30;;;;;;;6.80;6.30;;;15.70;99.90;;;;;;4993659;28;20477;-66
2021/10/20 06:36:57;;;;;;;6.93;6.33;;;15.70;99.90;;;;;;4993186;28;20481;-66
2021/10/20 06:39:24;;;;;;;8.13;6.27;;;15.80;99.90;;;;;;4993573;28;20518;-66
2021/10/20 06:41:51;;;;;;;8.30;6.40;;;15.80;99.90;;;;;;4994040;28;20829;-65
2021/10/20 06:44:19;;;;;;;8.43;7.10;;;15.80;99.90;;;;;;5001663;28;20540;-65
2021/10/20 06:46:46;;;;;;;12.27;10.90;;;15.80;99.90;;;;;;4993148;28;20477;-66
2021/10/20 06:49:15;;;;;;;16.63;11.40;;;15.80;99.90;;;;;;4992897;28;20477;-65
2021/10/20 06:51:43;;;;;;;10.53;9.53;;;15.80;99.90;;;;;;4993466;28;20477;-66
2021/10/20 06:54:11;;;;;;;7.20;6.60;;;15.80;99.90;;;;;;5011896;28;20527;-65
2021/10/20 06:56:37;;;;;;;6.20;5.30;;;15.90;99.90;;;;;;5013181;28;20589;-65
2021/10/20 06:59:04;;;;;;;5.73;5.13;;;15.90;99.90;;;;;;5012196;28;20484;-65
2021/10/20 07:01:31;;;;;;;5.70;5.20;;;15.90;99.90;;;;;;5012975;28;20477;-65
2021/10/20 07:03:58;;;;;;;6.17;5.57;;;15.90;99.90;;;;;;5012481;28;20473;-65
2021/10/20 07:06:28;;;;;;;6.60;5.90;;;16.00;99.90;;;;;;5012915;28;20538;-65
2021/10/20 07:08:55;;;;;;;6.50;4.90;;;16.00;99.90;;;;;;5012365;28;20533;-65
2021/10/20 07:11:22;;;;;;;5.80;5.30;;;16.00;99.90;;;;;;5012735;28;20535;-65
2021/10/20 07:13:49;;;;;;;5.47;4.97;;;16.00;99.90;;;;;;5012393;28;20540;-65
2021/10/20 07:16:17;;;;;;;7.70;6.40;;;16.00;99.90;;;;;;5012908;28;20867;-65
2021/10/20 07:18:44;;;;;;;7.43;5.47;;;16.00;99.90;;;;;;5012582;28;20491;-65
2021/10/20 07:21:11;;;;;;;10.30;7.67;;;16.00;99.90;;;;;;5012386;28;20457;-65
2021/10/20 07:23:39;;;;;;;5.70;5.20;;;16.00;99.90;;;;;;5012485;28;20469;-65
2021/10/20 07:26:06;;;;;;;7.53;5.43;;;16.00;99.90;;;;;;5012179;28;20963;-65
2021/10/20 07:28:33;;;;;;;10.90;8.90;;;16.10;99.90;;;;;;5012498;28;20527;-65
2021/10/20 07:31:00;;;;;;;5.97;5.47;;;16.10;99.90;;;;;;5012342;28;20469;-65
2021/10/20 07:33:27;;;;;;;5.27;4.57;;;16.10;99.90;;;;;;5012647;28;20527;-65
2021/10/20 07:35:54;;;;;;;12.80;7.80;;;16.10;99.90;;;;;;5012114;28;20983;-65
2021/10/20 07:38:22;;;;;;;13.20;11.90;;;16.10;99.90;;;;;;5012567;28;20476;-65
2021/10/20 07:40:50;;;;;;;7.90;7.07;;;16.10;99.90;;;;;;5011820;28;20472;-65
2021/10/20 07:43:17;;;;;;;5.00;4.60;;;16.10;99.90;;;;;;5002768;28;20469;-66
2021/10/20 07:45:44;;;;;;;5.67;5.17;;;16.10;99.90;;;;;;5012489;28;20477;-65
2021/10/20 07:48:11;;;;;;;5.27;4.77;;;16.20;99.90;;;;;;5012090;28;20469;-65
2021/10/20 07:50:39;;;;;;;5.93;5.33;;;16.20;99.90;;;;;;5012479;28;20531;-65
2021/10/20 07:53:06;;;;;;;6.00;5.23;;;16.20;99.90;;;;;;5001575;28;20458;-65
2021/10/20 07:55:33;;;;;;;4.73;4.23;;;16.30;99.90;;;;;;4992925;28;20462;-65
2021/10/20 07:58:01;;;;;;;6.90;6.30;;;16.30;99.90;;;;;;4992446;28;21032;-64
2021/10/20 08:00:28;;;;;;;5.57;5.00;;;16.30;99.90;;;;;;4993466;28;20536;-66
2021/10/20 08:02:56;;;;;;;7.70;6.90;;;16.30;99.90;;;;;;4995966;28;20545;-65
2021/10/20 08:05:23;;;;;;;6.70;4.63;;;16.30;99.90;;;;;;4996444;28;20482;-65
2021/10/20 08:07:52;;;;;;;5.50;4.33;;;16.40;99.90;;;;;;4995875;28;20844;-66
2021/10/20 08:10:21;;;;;;;5.50;4.70;;;16.40;99.90;;;;;;4995974;28;20473;-66
2021/10/20 08:12:48;;;;;;;6.07;5.47;;;16.50;99.90;;;;;;4996323;28;20820;-66
2021/10/20 08:15:18;;;;;;;7.50;5.20;;;16.50;99.90;;;;;;4995986;28;20466;-66
2021/10/20 08:17:46;;;;;;;5.30;4.73;;;16.70;99.90;;;;;;4996192;28;20548;-66
2021/10/20 08:20:16;;;;;;;5.10;4.60;;;16.70;99.90;;;;;;4998846;28;20527;-66
2021/10/20 08:22:43;;;;;;;6.00;5.43;;;16.80;99.90;;;;;;5015700;28;20465;-65
2021/10/20 08:25:11;;;;;;;8.40;5.50;;;16.90;99.90;;;;;;5015064;28;21009;-65
2021/10/20 08:27:38;;;;;;;5.17;4.30;;;16.90;99.90;;;;;;5015543;28;20461;-66
2021/10/20 08:30:06;;;;;;;5.80;5.10;;;17.00;99.90;;;;;;5014955;28;20476;-65
2021/10/20 08:32:35;;;;;;;4.80;4.40;;;17.00;99.90;;;;;;5015475;28;20484;-66
2021/10/20 08:35:02;;;;;;;4.77;4.30;;;17.00;99.90;;;;;;5015091;28;20520;-66
2021/10/20 08:37:29;;;;;;;5.30;4.90;;;17.10;99.90;;;;;;5015444;28;20560;-64
2021/10/20 08:39:56;;;;;;;4.20;3.90;;;17.20;99.90;;;;;;5014745;28;20480;-65
2021/10/20 08:42:23;;;;;;;6.67;3.90;;;17.30;99.90;;;;;;5010012;28;20470;-66
2021/10/20 08:44:50;;;;;;;7.70;5.07;;;17.30;99.90;;;;;;5011101;28;21024;-65
2021/10/20 08:47:18;;;;;;;5.10;4.30;;;17.30;99.90;;;;;;5014757;28;20464;-66
2021/10/20 08:49:48;;;;;;;5.20;4.40;;;17.40;99.90;;;;;;5015171;28;20584;-65
2021/10/20 08:52:15;;;;;;;4.17;3.87;;;17.40;99.90;;;;;;5014705;28;20464;-65
2021/10/20 08:54:43;;;;;;;3.50;3.20;;;17.40;99.90;;;;;;5014942;28;20546;-66
2021/10/20 08:57:10;;;;;;;4.30;3.90;;;17.40;99.90;;;;;;5014781;28;20469;-65
2021/10/20 08:59:37;;;;;;;4.50;4.10;;;17.50;99.90;;;;;;5014753;28;20955;-66
2021/10/20 09:02:05;;;;;;;4.67;4.20;;;17.50;99.90;;;;;;5014408;28;20473;-64
2021/10/20 09:04:35;;;;;;;8.13;4.40;;;17.60;99.90;;;;;;5014770;28;20874;-65
2021/10/20 09:07:13;;;;;;;6.50;4.23;;;17.60;99.90;;;;;;5014396;28;20483;-66
2021/10/20 09:09:39;;;;;;;7.00;4.20;;;17.60;99.90;;;;;;5014746;28;20488;-65
2021/10/20 09:12:06;;;;;;;4.63;4.00;;;17.60;99.90;;;;;;5013955;28;20481;-66
2021/10/20 09:14:34;;;;;;;5.43;4.87;;;17.60;99.90;;;;;;5014872;28;20800;-66
2021/10/20 09:17:04;;;;;;;4.53;4.13;;;17.70;99.90;;;;;;5014171;28;20477;-65
2021/10/20 09:19:32;;;;;;;4.60;4.20;;;17.60;99.90;;;;;;5014690;28;20500;-66
2021/10/20 09:22:02;;;;;;;7.33;4.87;;;17.70;99.90;;;;;;5014088;28;20492;-66
2021/10/20 09:24:35;;;;;;;7.67;3.77;;;17.70;99.90;;;;;;5014332;28;20556;-66
2021/10/20 09:27:04;;;;;;;3.70;3.40;;;17.70;99.90;;;;;;5014095;28;20504;-66
2021/10/20 09:29:33;;;;;;;4.47;4.07;;;17.80;99.90;;;;;;5014418;28;20460;-65
2021/10/20 09:32:02;;;;;;;4.77;4.23;;;17.80;99.90;;;;;;5013855;28;20967;-66
2021/10/20 09:34:34;;;;;;;5.83;3.90;;;17.80;99.90;;;;;;5014327;28;20499;-66
2021/10/20 09:37:03;;;;;;;5.23;4.77;;;17.80;99.90;;;;;;5013683;28;20523;-65
2021/10/20 09:39:32;;;;;;;6.77;6.10;;;17.80;99.90;;;;;;5014101;28;20483;-65
2021/10/20 09:42:08;;;;;;;6.00;5.43;;;17.90;99.90;;;;;;5011734;28;20465;-65
2021/10/20 09:44:46;;;;;;;11.10;8.70;;;17.90;99.90;;;;;;5007679;28;20492;-65
2021/10/20 09:47:13;;;;;;;11.07;9.37;;;17.90;99.90;;;;;;5013625;28;20484;-65
2021/10/20 09:49:47;;;;;;;8.00;7.30;;;18.00;99.90;;;;;;5013935;28;20960;-65
2021/10/20 09:52:15;;;;;;;8.70;7.80;;;18.00;99.90;;;;;;5013572;28;20558;-65
2021/10/20 09:54:45;;;;;;;7.83;7.03;;;18.10;99.90;;;;;;5013800;28;20465;-65
2021/10/20 09:57:15;;;;;;;4.60;4.20;;;18.00;99.90;;;;;;5013691;28;20882;-65
2021/10/20 09:59:45;;;;;;;3.80;3.37;;;18.00;99.90;;;;;;5013337;28;20560;-65
2021/10/20 10:02:13;;;;;;;4.73;4.33;;;17.90;99.90;;;;;;5013375;28;20469;-66
2021/10/20 10:04:40;;;;;;;6.70;4.53;;;17.90;99.90;;;;;;5013772;28;20465;-65
2021/10/20 10:07:08;;;;;;;5.47;4.97;;;17.90;99.90;;;;;;5013297;28;20870;-65
2021/10/20 10:09:35;;;;;;;4.83;4.30;;;17.80;99.90;;;;;;5013579;28;20500;-66
2021/10/20 10:12:09;;;;;;;4.60;4.13;;;17.70;99.90;;;;;;5013420;28;20990;-66
2021/10/20 10:14:41;;;;;;;6.00;4.33;;;17.80;99.90;;;;;;5013547;28;20484;-66
2021/10/20 10:17:09;;;;;;;4.43;4.03;;;17.70;99.90;;;;;;5013174;28;20542;-66
2021/10/20 10:19:40;;;;;;;5.63;5.07;;;17.70;99.90;;;;;;5013604;28;20476;-66
2021/10/20 10:22:21;;;;;;;6.00;4.73;;;17.60;99.90;;;;;;5013078;28;20469;-66
2021/10/20 10:24:49;;;;;;;6.00;4.67;;;17.60;99.90;;;;;;5012807;28;20548;-66
2021/10/20 10:27:18;;;;;;;5.30;4.80;;;17.50;99.90;;;;;;5013030;28;20481;-66
2021/10/20 10:29:50;;;;;;;6.27;4.60;;;17.50;99.90;;;;;;5019438;28;20530;-66
2021/10/20 10:32:19;;;;;;;8.00;5.17;;;17.50;99.90;;;;;;5032716;28;20471;-66
2021/10/20 10:34:47;;;;;;;5.83;5.33;;;17.50;99.90;;;;;;5031679;28;20476;-65
2021/10/20 10:37:25;;;;;;;6.30;5.70;;;17.50;99.90;;;;;;5012909;28;20870;-65
2021/10/20 10:39:52;;;;;;;7.47;6.40;;;17.50;99.90;;;;;;5013112;28;20503;-65
2021/10/20 10:42:31;;;;;;;13.63;5.90;;;17.50;99.90;;;;;;5017454;28;20981;-65
2021/10/20 10:45:12;;;;;;;5.10;4.60;;;17.50;99.90;;;;;;5032729;28;20479;-65
2021/10/20 10:47:56;;;;;;;5.40;4.30;;;17.50;99.90;;;;;;5033221;28;20463;-65
2021/10/20 10:50:38;;;;;;;4.10;3.70;;;17.50;99.90;;;;;;5032739;28;20559;-65
2021/10/20 10:53:05;;;;;;;6.93;5.00;;;17.50;99.90;;;;;;5032867;28;21098;-65
2021/10/20 10:55:33;;;;;;;7.10;4.60;;;17.40;99.90;;;;;;5032213;28;20491;-65
2021/10/20 10:58:03;;;;;;;4.83;4.40;;;17.40;99.90;;;;;;5032760;28;20518;-65
2021/10/20 11:00:47;;;;;;;7.03;4.70;;;17.50;99.90;;;;;;5032123;28;20586;-65
2021/10/20 11:03:16;;;;;;;5.13;4.13;;;17.40;99.90;;;;;;5032599;28;20476;-66
2021/10/20 11:05:49;;;;;;;6.00;3.83;;;17.40;99.90;;;;;;5032047;28;20468;-64
2021/10/20 11:08:17;;;;;;;5.10;4.60;;;17.40;99.90;;;;;;5032436;28;20543;-64
2021/10/20 11:10:44;;;;;;;4.97;4.53;;;17.40;99.90;;;;;;5031783;28;20543;-66
2021/10/20 11:13:13;;;;;;;5.77;4.63;;;17.40;99.90;;;;;;5032630;28;21103;-66
2021/10/20 11:15:41;;;;;;;5.20;4.70;;;17.50;99.90;;;;;;5032059;28;20503;-66
2021/10/20 11:18:08;;;;;;;6.53;5.70;;;17.40;99.90;;;;;;5032579;28;20472;-66
2021/10/20 11:20:38;;;;;;;5.90;4.77;;;17.50;99.90;;;;;;5032047;28;20483;-66
2021/10/20 11:23:06;;;;;;;7.20;6.60;;;17.50;99.90;;;;;;5032466;28;20823;-66
2021/10/20 11:25:37;;;;;;;8.57;6.27;;;17.50;99.90;;;;;;5031973;28;20468;-66
2021/10/20 11:28:06;;;;;;;7.97;7.20;;;17.60;99.90;;;;;;5032511;28;20962;-65
2021/10/20 11:30:36;;;;;;;9.30;6.93;;;17.60;99.90;;;;;;5031913;28;20468;-66
2021/10/20 11:33:08;;;;;;;6.20;5.70;;;17.60;99.90;;;;;;5018662;28;20544;-65
2021/10/20 11:35:34;;;;;;;8.50;7.70;;;17.70;99.90;;;;;;5014255;28;20532;-66
2021/10/20 11:38:04;;;;;;;6.87;5.40;;;17.70;99.90;;;;;;5014071;28;20491;-65
2021/10/20 11:40:33;;;;;;;7.33;6.00;;;17.80;99.90;;;;;;5014120;28;20476;-64
2021/10/20 11:43:00;;;;;;;7.73;4.17;;;17.80;99.90;;;;;;5014630;28;20807;-64
2021/10/20 11:45:30;;;;;;;5.70;5.17;;;17.80;99.90;;;;;;5014075;28;20469;-64
2021/10/20 11:48:03;;;;;;;5.77;5.20;;;17.90;99.90;;;;;;5014568;28;20488;-64
2021/10/20 11:50:31;;;;;;;6.53;5.20;;;17.80;99.90;;;;;;5014598;28;20833;-65
2021/10/20 11:53:00;;;;;;;4.77;4.37;;;17.80;99.90;;;;;;5016413;28;20464;-64
2021/10/20 11:55:28;;;;;;;5.80;4.90;;;17.90;99.90;;;;;;5015535;28;20473;-65
2021/10/20 11:57:55;;;;;;;4.60;4.23;;;17.90;99.90;;;;;;5015971;28;20523;-65
2021/10/20 12:00:23;;;;;;;7.53;4.07;;;17.90;99.90;;;;;;5015908;28;20535;-65
2021/10/20 12:02:50;;;;;;;7.40;4.57;;;18.00;99.90;;;;;;5015637;28;20915;-65
2021/10/20 12:05:18;;;;;;;6.80;4.47;;;18.00;99.90;;;;;;5013148;28;20465;-65
2021/10/20 12:07:47;;;;;;;5.80;3.60;;;18.00;99.90;;;;;;4995922;28;20824;-65
2021/10/20 12:10:15;;;;;;;4.97;4.33;;;18.00;99.90;;;;;;4996106;28;20536;-65
2021/10/20 12:12:43;;;;;;;11.10;7.10;;;18.00;99.90;;;;;;4995741;28;20532;-65
2021/10/20 12:15:18;;;;;;;7.33;6.50;;;18.10;99.90;;;;;;4996359;28;21042;-65
2021/10/20 12:17:46;;;;;;;5.83;5.30;;;18.10;99.90;;;;;;4998463;28;21215;-65
2021/10/20 12:20:15;;;;;;;7.57;4.90;;;18.10;99.90;;;;;;5012235;28;20477;-65
2021/10/20 12:22:43;;;;;;;5.40;4.10;;;18.10;99.90;;;;;;4995845;28;20520;-65
2021/10/20 12:25:10;;;;;;;3.93;3.63;;;18.20;99.90;;;;;;4995739;28;20477;-66
2021/10/20 12:27:39;;;;;;;4.97;3.80;;;18.20;99.90;;;;;;4995573;28;20552;-65
2021/10/20 12:30:08;;;;;;;5.03;4.30;;;18.30;99.90;;;;;;4996068;28;20864;-65
2021/10/20 12:32:36;;;;;;;4.87;3.80;;;18.30;99.90;;;;;;5011348;28;20522;-65
2021/10/20 12:35:05;;;;;;;8.87;5.10;;;18.40;99.90;;;;;;5011586;28;20545;-65
2021/10/20 12:37:34;;;;;;;5.00;4.60;;;18.40;99.90;;;;;;5014940;28;20469;-65
2021/10/20 12:40:13;;;;;;;4.93;3.67;;;18.50;99.90;;;;;;5015042;28;20539;-65
2021/10/20 12:42:44;;;;;;;6.80;6.23;;;18.50;99.90;;;;;;5006339;28;20484;-65
2021/10/20 12:45:13;;;;;;;7.17;5.60;;;18.60;99.90;;;;;;5006623;28;20476;-64
2021/10/20 12:47:43;;;;;;;6.97;4.63;;;18.70;99.90;;;;;;5000494;28;20477;-65